createdAt,value
2019-01-08T00:01:23.380Z,2.60
2019-01-08T00:04:10.041Z,2.50
2019-01-08T00:06:57.050Z,2.60
2019-01-08T00:09:44.083Z,2.60
2019-01-08T00:12:30.784Z,2.70
2019-01-08T00:15:17.753Z,2.70
2019-01-08T00:18:04.986Z,2.70
2019-01-08T00:20:52.288Z,2.70
2019-01-08T00:23:39.372Z,2.70
2019-01-08T00:26:26.472Z,2.70
2019-01-08T00:29:13.438Z,2.70
2019-01-08T00:32:00.745Z,2.70
2019-01-08T00:34:47.860Z,2.70
2019-01-08T00:37:34.867Z,2.70
2019-01-08T00:40:22.224Z,2.60
2019-01-08T00:43:09.430Z,2.70
2019-01-08T00:45:56.584Z,2.50
2019-01-08T00:48:43.902Z,2.50
2019-01-08T00:51:31.159Z,2.60
2019-01-08T00:54:18.298Z,2.60
2019-01-08T00:57:05.266Z,2.60
2019-01-08T00:59:52.494Z,2.60
2019-01-08T01:02:39.850Z,2.70
2019-01-08T01:05:26.892Z,2.60
2019-01-08T01:08:13.621Z,2.70
2019-01-08T01:11:00.601Z,2.60
2019-01-08T01:13:47.829Z,2.60
2019-01-08T01:16:35.064Z,2.70
2019-01-08T01:19:22.021Z,2.70
2019-01-08T01:22:09.293Z,2.70
2019-01-08T01:24:56.261Z,2.80
2019-01-08T01:27:43.567Z,2.80
2019-01-08T01:30:30.344Z,2.80
2019-01-08T01:33:17.526Z,2.90
2019-01-08T01:36:04.262Z,2.90
2019-01-08T01:38:51.300Z,2.90
2019-01-08T01:41:38.021Z,3.00
2019-01-08T01:44:25.053Z,3.00
2019-01-08T01:47:12.465Z,3.00
2019-01-08T01:49:59.094Z,3.10
2019-01-08T01:52:46.065Z,3.10
2019-01-08T01:55:32.802Z,3.10
2019-01-08T01:58:19.714Z,3.10
2019-01-08T02:01:06.827Z,3.10
2019-01-08T02:03:54.309Z,3.10
2019-01-08T02:06:42.921Z,3.10
2019-01-08T02:09:29.856Z,3.20
2019-01-08T02:12:16.972Z,3.20
2019-01-08T02:15:04.111Z,3.20
2019-01-08T02:17:51.024Z,3.20
2019-01-08T02:20:38.263Z,3.20
2019-01-08T02:23:25.218Z,3.20
2019-01-08T02:26:12.060Z,3.30
2019-01-08T02:28:59.304Z,3.20
2019-01-08T02:31:46.679Z,3.20
2019-01-08T02:34:34.047Z,3.20
2019-01-08T02:37:21.047Z,3.20
2019-01-08T02:40:08.112Z,3.20
2019-01-08T02:42:55.033Z,3.30
2019-01-08T02:45:42.004Z,3.30
2019-01-08T02:48:29.015Z,3.30
2019-01-08T02:51:16.236Z,3.30
2019-01-08T02:54:03.427Z,3.30
2019-01-08T02:56:50.415Z,3.30
2019-01-08T02:59:37.486Z,3.40
2019-01-08T03:02:24.596Z,3.30
2019-01-08T03:05:11.830Z,3.30
2019-01-08T03:07:59.026Z,3.30
2019-01-08T03:10:46.374Z,3.30
2019-01-08T03:13:33.572Z,3.30
2019-01-08T03:16:20.609Z,3.10
2019-01-08T03:19:07.875Z,3.10
2019-01-08T03:21:54.816Z,3.10
2019-01-08T03:24:41.992Z,3.20
2019-01-08T03:27:28.760Z,3.20
2019-01-08T03:30:15.993Z,3.20
2019-01-08T03:33:03.050Z,3.20
2019-01-08T03:35:49.713Z,3.20
2019-01-08T03:38:36.839Z,3.20
2019-01-08T03:41:24.043Z,3.30
2019-01-08T03:44:11.268Z,3.30
2019-01-08T03:46:58.384Z,3.40
2019-01-08T03:49:45.605Z,3.40
2019-01-08T03:52:32.847Z,3.30
2019-01-08T03:55:19.832Z,3.30
2019-01-08T03:58:07.249Z,3.30
2019-01-08T04:00:54.271Z,3.30
2019-01-08T04:03:41.561Z,3.20
2019-01-08T04:06:28.944Z,3.20
2019-01-08T04:09:15.873Z,3.30
2019-01-08T04:12:02.626Z,3.30
2019-01-08T04:14:49.966Z,3.30
2019-01-08T04:17:37.190Z,3.30
2019-01-08T04:20:24.430Z,3.40
2019-01-08T04:23:11.658Z,3.40
2019-01-08T04:25:58.879Z,3.40
2019-01-08T04:28:45.675Z,3.40
2019-01-08T04:31:32.645Z,3.40
2019-01-08T04:34:19.907Z,3.40
2019-01-08T04:37:06.824Z,3.30
2019-01-08T04:39:54.131Z,3.20
2019-01-08T04:42:41.458Z,3.30
2019-01-08T04:45:28.631Z,3.30
2019-01-08T04:48:15.412Z,3.30
2019-01-08T04:51:02.245Z,3.20
2019-01-08T04:53:49.418Z,3.20
2019-01-08T04:56:36.690Z,3.30
2019-01-08T04:59:23.748Z,3.20
2019-01-08T05:02:10.721Z,3.20
2019-01-08T05:04:57.929Z,3.20
2019-01-08T05:07:45.194Z,3.20
2019-01-08T05:10:32.625Z,3.20
2019-01-08T05:13:19.665Z,3.20
2019-01-08T05:16:06.500Z,3.10
2019-01-08T05:18:53.645Z,3.30
2019-01-08T05:21:40.901Z,3.20
2019-01-08T05:24:28.239Z,3.30
2019-01-08T05:27:15.307Z,3.20
2019-01-08T05:30:07.961Z,3.30
2019-01-08T05:32:50.724Z,3.30
2019-01-08T05:35:37.924Z,3.30
2019-01-08T05:38:25.283Z,3.40
2019-01-08T05:41:12.818Z,3.30
2019-01-08T05:43:59.820Z,3.30
2019-01-08T05:46:46.837Z,3.30
2019-01-08T05:49:34.315Z,3.30
2019-01-08T05:52:21.564Z,3.30
2019-01-08T05:55:08.720Z,3.30
2019-01-08T05:57:55.496Z,3.30
2019-01-08T06:00:42.464Z,3.30
2019-01-08T06:03:29.804Z,3.40
2019-01-08T06:06:17.195Z,3.40
2019-01-08T06:09:04.825Z,3.40
2019-01-08T06:11:51.724Z,3.40
2019-01-08T06:14:38.932Z,3.30
2019-01-08T06:17:25.862Z,3.30
2019-01-08T06:20:13.164Z,3.20
2019-01-08T06:23:00.350Z,3.10
2019-01-08T06:25:47.788Z,3.20
2019-01-08T06:28:34.887Z,3.20
2019-01-08T06:31:22.787Z,3.20
2019-01-08T06:34:09.576Z,3.30
2019-01-08T06:36:56.905Z,3.20
2019-01-08T06:39:44.142Z,3.20
2019-01-08T06:42:31.189Z,3.30
2019-01-08T06:45:18.180Z,3.10
2019-01-08T06:48:05.425Z,3.00
2019-01-08T06:50:56.277Z,3.00
2019-01-08T06:53:41.336Z,3.00
2019-01-08T06:56:28.132Z,3.10
2019-01-08T06:59:15.170Z,3.10
2019-01-08T07:02:02.208Z,3.10
2019-01-08T07:04:49.425Z,3.10
2019-01-08T07:07:36.121Z,3.10
2019-01-08T07:10:23.157Z,3.00
2019-01-08T07:13:09.888Z,3.00
2019-01-08T07:15:57.116Z,3.00
2019-01-08T07:18:43.785Z,3.10
2019-01-08T07:21:30.868Z,3.00
2019-01-08T07:24:17.817Z,3.00
2019-01-08T07:27:04.838Z,3.00
2019-01-08T07:29:52.157Z,3.10
2019-01-08T07:32:39.269Z,3.00
2019-01-08T07:35:26.145Z,2.80
2019-01-08T07:38:12.913Z,2.90
2019-01-08T07:40:59.917Z,2.90
2019-01-08T07:43:46.874Z,2.90
2019-01-08T07:46:34.060Z,2.80
2019-01-08T07:49:21.336Z,2.90
2019-01-08T07:52:08.518Z,2.90
2019-01-08T07:54:55.776Z,2.80
2019-01-08T07:57:43.112Z,2.90
2019-01-08T08:00:29.792Z,2.80
2019-01-08T08:03:17.044Z,2.80
2019-01-08T08:06:04.138Z,2.90
2019-01-08T08:08:51.347Z,2.90
2019-01-08T08:11:38.349Z,2.90
2019-01-08T08:14:25.349Z,2.90
2019-01-08T08:17:12.380Z,2.90
2019-01-08T08:19:59.621Z,2.90
2019-01-08T08:22:46.761Z,2.90
2019-01-08T08:25:34.090Z,3.00
2019-01-08T08:28:21.035Z,3.00
2019-01-08T08:31:07.998Z,3.00
2019-01-08T08:33:55.140Z,3.10
2019-01-08T08:36:42.051Z,3.10
2019-01-08T08:39:29.262Z,3.10
2019-01-08T08:42:16.569Z,3.30
2019-01-08T08:45:04.126Z,3.30
2019-01-08T08:47:50.824Z,3.30
2019-01-08T08:50:38.093Z,3.20
2019-01-08T08:53:24.794Z,3.30
2019-01-08T08:56:11.713Z,3.50
2019-01-08T08:58:58.984Z,3.70
2019-01-08T09:01:46.442Z,3.50
2019-01-08T09:04:33.604Z,3.50
2019-01-08T09:07:20.803Z,3.50
2019-01-08T09:10:07.904Z,3.60
2019-01-08T09:12:54.905Z,3.50
2019-01-08T09:15:41.973Z,3.60
2019-01-08T09:18:29.181Z,3.60
2019-01-08T09:21:16.134Z,3.60
2019-01-08T09:24:03.312Z,3.60
2019-01-08T09:26:50.637Z,3.60
2019-01-08T09:29:37.667Z,3.60
2019-01-08T09:32:24.884Z,3.80
2019-01-08T09:35:11.992Z,3.80
2019-01-08T09:37:59.084Z,3.70
2019-01-08T09:40:46.228Z,3.70
2019-01-08T09:43:33.470Z,3.60
2019-01-08T09:46:20.801Z,3.70
2019-01-08T09:49:07.752Z,3.70
2019-01-08T09:51:55.172Z,3.70
2019-01-08T09:54:42.084Z,3.60
2019-01-08T09:57:28.886Z,3.70
2019-01-08T10:00:15.573Z,3.80
2019-01-08T10:03:02.840Z,3.90
2019-01-08T10:05:50.286Z,3.90
2019-01-08T10:08:36.945Z,4.00
2019-01-08T10:11:23.628Z,4.00
2019-01-08T10:14:10.948Z,3.90
2019-01-08T10:16:58.001Z,3.90
2019-01-08T10:19:45.084Z,3.90
2019-01-08T10:22:31.821Z,3.80
2019-01-08T10:25:18.761Z,3.90
2019-01-08T10:28:05.744Z,4.00
2019-01-08T10:30:52.516Z,4.00
2019-01-08T10:33:39.598Z,4.10
2019-01-08T10:36:26.637Z,4.10
2019-01-08T10:39:13.713Z,4.10
2019-01-08T10:42:00.852Z,4.20
2019-01-08T10:44:48.194Z,4.10
2019-01-08T10:47:35.462Z,4.20
2019-01-08T10:50:22.887Z,4.10
2019-01-08T10:53:09.953Z,4.30
2019-01-08T10:55:57.144Z,4.30
2019-01-08T10:58:44.442Z,4.40
2019-01-08T11:01:31.709Z,4.60
2019-01-08T11:04:18.704Z,4.60
2019-01-08T11:07:05.638Z,4.90
2019-01-08T11:09:52.936Z,4.80
2019-01-08T11:12:40.326Z,4.60
2019-01-08T11:15:27.341Z,4.40
2019-01-08T11:18:14.486Z,4.30
2019-01-08T11:21:01.750Z,4.40
2019-01-08T11:23:49.005Z,4.40
2019-01-08T11:26:36.256Z,4.30
2019-01-08T11:29:23.233Z,4.40
2019-01-08T11:32:09.969Z,4.20
2019-01-08T11:34:56.978Z,4.20
2019-01-08T11:37:44.189Z,4.30
2019-01-08T11:40:33.148Z,4.30
2019-01-08T11:43:20.465Z,4.50
2019-01-08T11:46:07.442Z,4.50
2019-01-08T11:48:54.367Z,4.50
2019-01-08T11:51:41.622Z,4.40
2019-01-08T11:54:28.592Z,4.50
2019-01-08T11:57:15.782Z,4.40
2019-01-08T12:00:02.500Z,4.40
2019-01-08T12:02:49.761Z,4.30
2019-01-08T12:05:36.999Z,4.20
2019-01-08T12:08:24.016Z,4.30
2019-01-08T12:11:11.175Z,4.30
2019-01-08T12:13:58.717Z,4.40
2019-01-08T12:16:45.830Z,4.30
2019-01-08T12:19:32.540Z,4.40
2019-01-08T12:22:19.596Z,4.50
2019-01-08T12:25:06.994Z,4.90
2019-01-08T12:27:53.956Z,5.00
2019-01-08T12:30:41.193Z,5.10
2019-01-08T12:33:28.230Z,5.00
2019-01-08T12:36:15.450Z,4.80
2019-01-08T12:39:02.444Z,4.60
2019-01-08T12:41:49.473Z,4.50
2019-01-08T12:44:36.840Z,4.60
2019-01-08T12:47:23.753Z,4.50
2019-01-08T12:50:10.873Z,4.50
2019-01-08T12:52:57.991Z,4.60
2019-01-08T12:55:44.669Z,4.50
2019-01-08T12:58:31.690Z,4.50
2019-01-08T13:01:20.951Z,4.50
2019-01-08T13:04:07.572Z,4.50
2019-01-08T13:06:54.465Z,4.40
2019-01-08T13:09:41.782Z,4.30
2019-01-08T13:12:28.797Z,4.30
2019-01-08T13:15:15.988Z,4.20
2019-01-08T13:18:02.859Z,4.10
2019-01-08T13:20:50.085Z,4.10
2019-01-08T13:23:37.319Z,4.20
2019-01-08T13:26:24.087Z,4.30
2019-01-08T13:29:11.351Z,4.20
2019-01-08T13:31:58.076Z,4.40
2019-01-08T13:34:44.986Z,4.40
2019-01-08T13:37:32.297Z,4.40
2019-01-08T13:40:19.318Z,4.40
2019-01-08T13:43:06.264Z,4.50
2019-01-08T13:45:53.444Z,5.30
2019-01-08T13:48:40.389Z,4.90
2019-01-08T13:51:27.548Z,4.50
2019-01-08T13:54:14.408Z,4.30
2019-01-08T13:57:01.357Z,4.40
2019-01-08T13:59:48.525Z,4.30
2019-01-08T14:02:35.172Z,4.40
2019-01-08T14:05:22.187Z,4.60
2019-01-08T14:08:09.160Z,4.60
2019-01-08T14:10:56.866Z,4.60
2019-01-08T14:13:43.893Z,4.50
2019-01-08T14:16:30.801Z,4.40
2019-01-08T14:19:17.901Z,4.40
2019-01-08T14:22:05.089Z,4.30
2019-01-08T14:24:52.252Z,4.30
2019-01-08T14:27:38.951Z,4.40
2019-01-08T14:30:25.897Z,4.30
2019-01-08T14:33:13.085Z,4.20
2019-01-08T14:35:59.739Z,4.10
2019-01-08T14:38:46.918Z,4.10
2019-01-08T14:41:33.965Z,4.10
2019-01-08T14:44:20.893Z,4.00
2019-01-08T14:47:08.153Z,3.90
2019-01-08T14:49:55.465Z,3.90
2019-01-08T14:52:42.698Z,3.90
2019-01-08T14:55:29.682Z,3.70
2019-01-08T14:58:16.789Z,3.90
2019-01-08T15:01:03.893Z,3.70
2019-01-08T15:03:51.092Z,3.60
2019-01-08T15:06:38.305Z,3.70
2019-01-08T15:09:25.283Z,3.50
2019-01-08T15:12:12.469Z,3.30
2019-01-08T15:14:59.457Z,3.30
2019-01-08T15:17:46.494Z,3.30
2019-01-08T15:20:33.792Z,3.40
2019-01-08T15:23:21.005Z,3.40
2019-01-08T15:26:08.170Z,3.40
2019-01-08T15:28:55.106Z,3.40
2019-01-08T15:31:42.301Z,3.40
2019-01-08T15:34:29.369Z,3.30
2019-01-08T15:37:16.332Z,3.30
2019-01-08T15:40:03.501Z,3.30
2019-01-08T15:42:50.828Z,3.20
2019-01-08T15:45:37.523Z,3.20
2019-01-08T15:48:24.550Z,3.20
2019-01-08T15:51:11.804Z,3.00
2019-01-08T15:53:58.887Z,3.10
2019-01-08T15:56:45.934Z,3.10
2019-01-08T15:59:32.667Z,3.00
2019-01-08T16:02:19.793Z,3.00
2019-01-08T16:05:07.822Z,3.00
2019-01-08T16:07:54.825Z,3.00
2019-01-08T16:10:42.124Z,3.10
2019-01-08T16:13:29.515Z,3.00
2019-01-08T16:16:16.465Z,3.00
2019-01-08T16:19:03.808Z,2.80
2019-01-08T16:21:50.878Z,2.80
2019-01-08T16:24:41.084Z,2.90
2019-01-08T16:27:28.057Z,2.70
2019-01-08T16:30:15.270Z,2.70
2019-01-08T16:33:02.418Z,2.70
2019-01-08T16:35:49.295Z,2.60
2019-01-08T16:38:36.308Z,2.70
2019-01-08T16:41:23.217Z,2.60
2019-01-08T16:44:10.240Z,2.60
2019-01-08T16:46:57.417Z,2.60
2019-01-08T16:49:44.275Z,2.60
2019-01-08T16:52:31.255Z,2.50
2019-01-08T16:55:18.521Z,2.60
2019-01-08T16:58:05.833Z,2.50
2019-01-08T17:00:53.059Z,2.60
2019-01-08T17:03:40.021Z,2.60
2019-01-08T17:06:26.724Z,2.60
2019-01-08T17:09:14.202Z,2.40
2019-01-08T17:12:01.150Z,2.40
2019-01-08T17:14:47.816Z,2.50
2019-01-08T17:17:35.130Z,2.40
2019-01-08T17:20:21.876Z,2.30
2019-01-08T17:23:08.597Z,2.40
2019-01-08T17:25:55.927Z,2.40
2019-01-08T17:28:42.902Z,2.40
2019-01-08T17:31:29.845Z,2.30
2019-01-08T17:34:16.884Z,2.40
2019-01-08T17:37:03.850Z,2.40
2019-01-08T17:39:51.034Z,2.30
2019-01-08T17:42:37.932Z,2.40
2019-01-08T17:45:24.898Z,2.50
2019-01-08T17:48:11.901Z,2.40
2019-01-08T17:50:58.690Z,2.50
2019-01-08T17:53:46.106Z,2.50
2019-01-08T17:56:33.196Z,2.50
2019-01-08T17:59:20.189Z,2.60
2019-01-08T18:02:07.395Z,2.70
2019-01-08T18:04:54.658Z,2.60
2019-01-08T18:07:41.653Z,2.60
2019-01-08T18:10:28.970Z,2.70
2019-01-08T18:13:15.991Z,2.60
2019-01-08T18:16:03.080Z,2.70
2019-01-08T18:18:50.122Z,2.80
2019-01-08T18:21:37.178Z,2.70
2019-01-08T18:24:24.058Z,2.70
2019-01-08T18:27:11.073Z,2.70
2019-01-08T18:29:58.522Z,2.60
2019-01-08T18:32:45.441Z,2.60
2019-01-08T18:35:32.400Z,2.50
2019-01-08T18:38:19.923Z,2.40
2019-01-08T18:41:06.900Z,2.40
2019-01-08T18:43:54.261Z,2.40
2019-01-08T18:46:41.696Z,2.40
2019-01-08T18:49:28.967Z,2.30
2019-01-08T18:52:16.264Z,2.40
2019-01-08T18:55:03.048Z,2.40
2019-01-08T18:57:50.056Z,2.30
2019-01-08T19:00:37.001Z,2.40
2019-01-08T19:03:24.002Z,2.30
2019-01-08T19:06:10.774Z,2.40
2019-01-08T19:09:22.650Z,2.30
2019-01-08T19:12:09.518Z,2.30
2019-01-08T19:14:56.833Z,2.40
2019-01-08T19:17:43.837Z,2.40
2019-01-08T19:20:31.241Z,2.40
2019-01-08T19:23:18.349Z,2.50
2019-01-08T19:26:05.238Z,2.30
2019-01-08T19:28:52.534Z,2.40
2019-01-08T19:31:39.551Z,2.30
2019-01-08T19:34:26.582Z,2.50
2019-01-08T19:37:13.920Z,2.50
2019-01-08T19:40:01.262Z,2.50
2019-01-08T19:42:48.486Z,2.50
2019-01-08T19:45:35.826Z,2.50
2019-01-08T19:48:22.995Z,2.60
2019-01-08T19:51:10.380Z,2.40
2019-01-08T19:53:57.378Z,2.50
2019-01-08T19:56:44.358Z,2.50
2019-01-08T19:59:31.475Z,2.50
2019-01-08T20:02:18.802Z,2.40
2019-01-08T20:05:06.229Z,2.40
2019-01-08T20:07:53.414Z,2.50
2019-01-08T20:10:40.681Z,2.50
2019-01-08T20:13:27.733Z,2.40
2019-01-08T20:16:14.860Z,2.50
2019-01-08T20:19:01.806Z,2.40
2019-01-08T20:21:48.647Z,2.40
2019-01-08T20:24:35.926Z,2.50
2019-01-08T20:27:22.610Z,2.60
2019-01-08T20:30:09.794Z,2.60
2019-01-08T20:32:57.160Z,2.50
2019-01-08T20:35:47.483Z,2.50
2019-01-08T20:38:34.292Z,2.70
2019-01-08T20:41:21.378Z,2.70
2019-01-08T20:44:08.445Z,2.60
2019-01-08T20:46:55.847Z,2.60
2019-01-08T20:49:43.082Z,2.70
2019-01-08T20:52:29.970Z,2.80
2019-01-08T20:55:16.842Z,2.60
2019-01-08T20:58:03.729Z,2.50
2019-01-08T21:00:50.754Z,2.40
2019-01-08T21:03:37.920Z,2.40
2019-01-08T21:06:25.186Z,2.50
2019-01-08T21:09:11.911Z,2.50
2019-01-08T21:11:58.924Z,2.40
2019-01-08T21:14:46.177Z,2.40
2019-01-08T21:17:32.829Z,2.40
2019-01-08T21:20:20.113Z,2.30
2019-01-08T21:23:07.423Z,2.40
2019-01-08T21:25:54.692Z,2.40
2019-01-08T21:28:41.908Z,2.40
2019-01-08T21:31:29.285Z,2.20
2019-01-08T21:34:16.496Z,2.10
2019-01-08T21:37:03.394Z,2.20
2019-01-08T21:39:50.754Z,2.30
2019-01-08T21:42:38.109Z,2.30
2019-01-08T21:45:25.478Z,2.30
2019-01-08T21:48:12.219Z,2.20
2019-01-08T21:50:59.266Z,2.20
2019-01-08T21:53:46.462Z,2.20
2019-01-08T21:56:33.441Z,2.30
2019-01-08T21:59:21.108Z,2.20
2019-01-08T22:02:09.717Z,2.30
2019-01-08T22:04:56.880Z,2.40
2019-01-08T22:07:44.085Z,2.40
2019-01-08T22:10:31.279Z,2.30
2019-01-08T22:13:18.209Z,2.30
2019-01-08T22:16:05.739Z,2.50
2019-01-08T22:18:53.734Z,2.60
2019-01-08T22:21:40.792Z,2.40
2019-01-08T22:24:27.737Z,2.50
2019-01-08T22:27:14.828Z,2.40
2019-01-08T22:30:01.981Z,2.30
2019-01-08T22:32:49.083Z,2.30
2019-01-08T22:35:36.125Z,2.40
2019-01-08T22:38:23.463Z,2.20
2019-01-08T22:41:10.929Z,2.30
2019-01-08T22:43:57.916Z,2.30
2019-01-08T22:46:44.993Z,2.30
2019-01-08T22:49:32.451Z,2.10
2019-01-08T22:52:19.655Z,2.20
2019-01-08T22:55:06.945Z,2.20
2019-01-08T22:57:54.313Z,2.10
2019-01-08T23:00:48.555Z,2.10
2019-01-08T23:03:36.182Z,2.20
2019-01-08T23:06:23.145Z,2.20
2019-01-08T23:09:11.554Z,2.10
2019-01-08T23:11:59.153Z,2.10
2019-01-08T23:14:46.253Z,2.10
2019-01-08T23:17:33.231Z,2.00
2019-01-08T23:20:20.360Z,2.00
2019-01-08T23:23:07.570Z,1.90
2019-01-08T23:25:54.533Z,2.00
2019-01-08T23:28:41.586Z,2.00
2019-01-08T23:31:28.751Z,2.00
2019-01-08T23:34:15.714Z,2.00
2019-01-08T23:37:02.696Z,2.00
2019-01-08T23:39:49.801Z,1.90
2019-01-08T23:42:36.752Z,2.00
2019-01-08T23:45:24.013Z,1.90
2019-01-08T23:48:11.198Z,2.10
2019-01-08T23:50:58.364Z,2.00
2019-01-08T23:53:45.797Z,2.10
2019-01-08T23:56:33.882Z,2.00
2019-01-08T23:59:20.539Z,2.10
